sensor_id;sensor_type;location;lat;lon;timestamp;pressure;altitude;pressure_sealevel;temperature;humidity
34674;BME280;20879;55.668;37.858;2023-02-23T00:02:44;99694.66;;;-14.51;81.75
34674;BME280;20879;55.668;37.858;2023-02-23T00:05:18;99697.03;;;-14.52;81.75
34674;BME280;20879;55.668;37.858;2023-02-23T00:07:47;99666.47;;;-14.62;81.76
34674;BME280;20879;55.668;37.858;2023-02-23T00:10:23;99669.19;;;-14.59;82.25
34674;BME280;20879;55.668;37.858;2023-02-23T00:12:56;99693.81;;;-14.51;81.59
34674;BME280;20879;55.668;37.858;2023-02-23T00:15:27;99690.69;;;-14.59;81.61
34674;BME280;20879;55.668;37.858;2023-02-23T00:17:59;99687.22;;;-14.61;82.14
34674;BME280;20879;55.668;37.858;2023-02-23T00:20:35;99680.50;;;-14.52;81.72
34674;BME280;20879;55.668;37.858;2023-02-23T00:23:15;99686.97;;;-14.64;81.75
34674;BME280;20879;55.668;37.858;2023-02-23T00:25:50;99698.75;;;-14.72;81.76
34674;BME280;20879;55.668;37.858;2023-02-23T00:28:19;99704.34;;;-14.74;82.35
34674;BME280;20879;55.668;37.858;2023-02-23T00:30:49;99708.84;;;-14.70;82.48
34674;BME280;20879;55.668;37.858;2023-02-23T00:33:20;99696.66;;;-14.67;82.39
34674;BME280;20879;55.668;37.858;2023-02-23T00:36:03;99717.53;;;-14.75;82.25
34674;BME280;20879;55.668;37.858;2023-02-23T00:38:34;99708.78;;;-14.91;82.37
34674;BME280;20879;55.668;37.858;2023-02-23T00:41:07;99698.34;;;-14.87;82.59
34674;BME280;20879;55.668;37.858;2023-02-23T00:43:45;99700.38;;;-14.72;82.74
34674;BME280;20879;55.668;37.858;2023-02-23T00:46:22;99652.72;;;-15.27;82.83
34674;BME280;20879;55.668;37.858;2023-02-23T00:48:56;99713.00;;;-14.90;82.85
34674;BME280;20879;55.668;37.858;2023-02-23T00:51:30;99700.53;;;-15.00;83.30
34674;BME280;20879;55.668;37.858;2023-02-23T00:53:59;99698.09;;;-14.90;83.58
34674;BME280;20879;55.668;37.858;2023-02-23T00:56:29;99707.41;;;-14.87;83.37
34674;BME280;20879;55.668;37.858;2023-02-23T00:58:58;99713.38;;;-14.85;83.19
34674;BME280;20879;55.668;37.858;2023-02-23T01:01:27;99720.59;;;-14.88;82.85
34674;BME280;20879;55.668;37.858;2023-02-23T01:04:00;99729.38;;;-14.92;83.77
34674;BME280;20879;55.668;37.858;2023-02-23T01:06:29;99720.97;;;-14.84;83.14
34674;BME280;20879;55.668;37.858;2023-02-23T01:08:59;99689.81;;;-15.09;83.38
34674;BME280;20879;55.668;37.858;2023-02-23T01:11:37;99731.03;;;-14.82;82.92
34674;BME280;20879;55.668;37.858;2023-02-23T01:14:07;99714.97;;;-14.96;83.60
34674;BME280;20879;55.668;37.858;2023-02-23T01:16:40;99659.41;;;-15.36;83.36
34674;BME280;20879;55.668;37.858;2023-02-23T01:19:11;99734.09;;;-14.95;83.56
34674;BME280;20879;55.668;37.858;2023-02-23T01:21:41;99739.97;;;-14.95;83.82
34674;BME280;20879;55.668;37.858;2023-02-23T01:24:12;99736.44;;;-14.97;83.96
34674;BME280;20879;55.668;37.858;2023-02-23T01:26:48;99700.50;;;-15.10;83.65
34674;BME280;20879;55.668;37.858;2023-02-23T01:29:22;99698.81;;;-14.91;83.53
34674;BME280;20879;55.668;37.858;2023-02-23T01:31:51;99742.47;;;-14.84;83.04
34674;BME280;20879;55.668;37.858;2023-02-23T01:34:25;99738.97;;;-14.86;83.49
34674;BME280;20879;55.668;37.858;2023-02-23T01:36:54;99746.13;;;-15.00;83.63
34674;BME280;20879;55.668;37.858;2023-02-23T01:39:23;99732.97;;;-14.99;83.64
34674;BME280;20879;55.668;37.858;2023-02-23T01:41:52;99739.00;;;-15.05;83.30
34674;BME280;20879;55.668;37.858;2023-02-23T01:47:22;99729.56;;;-15.09;83.83
34674;BME280;20879;55.668;37.858;2023-02-23T01:49:54;99732.03;;;-15.09;84.03
34674;BME280;20879;55.668;37.858;2023-02-23T01:52:23;99743.72;;;-15.08;83.82
34674;BME280;20879;55.668;37.858;2023-02-23T01:54:58;99753.78;;;-15.07;84.18
34674;BME280;20879;55.668;37.858;2023-02-23T01:57:29;99749.16;;;-15.13;84.08
34674;BME280;20879;55.668;37.858;2023-02-23T01:59:58;99751.84;;;-15.20;84.49
34674;BME280;20879;55.668;37.858;2023-02-23T02:02:45;99764.41;;;-15.18;84.48
34674;BME280;20879;55.668;37.858;2023-02-23T02:05:18;99747.44;;;-15.14;84.89
34674;BME280;20879;55.668;37.858;2023-02-23T02:07:50;99758.84;;;-15.16;84.82
34674;BME280;20879;55.668;37.858;2023-02-23T02:10:29;99745.69;;;-15.15;84.97
34674;BME280;20879;55.668;37.858;2023-02-23T02:13:21;99767.03;;;-15.17;84.85
34674;BME280;20879;55.668;37.858;2023-02-23T02:16:26;99766.75;;;-15.20;85.26
34674;BME280;20879;55.668;37.858;2023-02-23T02:22:33;99764.16;;;-15.21;84.96
34674;BME280;20879;55.668;37.858;2023-02-23T02:25:31;99758.66;;;-15.27;84.96
34674;BME280;20879;55.668;37.858;2023-02-23T02:28:26;99729.28;;;-15.13;85.09
34674;BME280;20879;55.668;37.858;2023-02-23T02:31:13;99783.22;;;-15.12;85.23
34674;BME280;20879;55.668;37.858;2023-02-23T02:34:18;99776.28;;;-15.05;84.39
34674;BME280;20879;55.668;37.858;2023-02-23T02:37:21;99781.50;;;-15.02;84.58
34674;BME280;20879;55.668;37.858;2023-02-23T02:39:59;99764.88;;;-15.03;84.16
34674;BME280;20879;55.668;37.858;2023-02-23T02:42:59;99775.81;;;-15.01;84.20
34674;BME280;20879;55.668;37.858;2023-02-23T02:45:42;99794.19;;;-14.99;84.07
34674;BME280;20879;55.668;37.858;2023-02-23T02:48:27;99781.38;;;-15.04;84.34
34674;BME280;20879;55.668;37.858;2023-02-23T02:51:04;99793.47;;;-14.98;84.32
34674;BME280;20879;55.668;37.858;2023-02-23T02:53:45;99804.44;;;-14.96;84.12
34674;BME280;20879;55.668;37.858;2023-02-23T02:56:18;99782.75;;;-15.07;84.26
34674;BME280;20879;55.668;37.858;2023-02-23T02:58:54;99790.34;;;-15.06;84.25
34674;BME280;20879;55.668;37.858;2023-02-23T03:01:26;99803.34;;;-15.08;84.09
34674;BME280;20879;55.668;37.858;2023-02-23T03:04:21;99798.31;;;-15.19;84.22
34674;BME280;20879;55.668;37.858;2023-02-23T03:07:08;99738.84;;;-15.55;84.74
34674;BME280;20879;55.668;37.858;2023-02-23T03:09:58;99781.81;;;-15.37;84.78
34674;BME280;20879;55.668;37.858;2023-02-23T03:12:51;99806.38;;;-15.40;85.25
34674;BME280;20879;55.668;37.858;2023-02-23T03:15:45;99760.25;;;-15.66;84.84
34674;BME280;20879;55.668;37.858;2023-02-23T03:18:42;99808.03;;;-15.50;85.41
34674;BME280;20879;55.668;37.858;2023-02-23T03:21:35;99800.13;;;-15.45;85.17
34674;BME280;20879;55.668;37.858;2023-02-23T03:24:33;99810.19;;;-15.44;85.06
34674;BME280;20879;55.668;37.858;2023-02-23T03:27:24;99790.13;;;-15.56;85.03
34674;BME280;20879;55.668;37.858;2023-02-23T03:30:13;99804.41;;;-15.53;85.36
34674;BME280;20879;55.668;37.858;2023-02-23T03:33:07;99803.53;;;-15.54;85.78
34674;BME280;20879;55.668;37.858;2023-02-23T03:35:56;99800.06;;;-15.56;85.58
34674;BME280;20879;55.668;37.858;2023-02-23T03:38:45;99798.84;;;-15.51;85.79
34674;BME280;20879;55.668;37.858;2023-02-23T03:41:32;99810.53;;;-15.50;85.84
34674;BME280;20879;55.668;37.858;2023-02-23T03:44:21;99811.72;;;-15.55;86.29
34674;BME280;20879;55.668;37.858;2023-02-23T03:47:12;99805.75;;;-15.57;86.13
34674;BME280;20879;55.668;37.858;2023-02-23T03:50:00;99779.56;;;-15.72;86.34
34674;BME280;20879;55.668;37.858;2023-02-23T03:52:49;99825.16;;;-15.53;86.09
34674;BME280;20879;55.668;37.858;2023-02-23T03:55:36;99817.91;;;-15.60;86.33
34674;BME280;20879;55.668;37.858;2023-02-23T03:58:36;99805.06;;;-15.84;86.45
34674;BME280;20879;55.668;37.858;2023-02-23T04:01:23;99813.28;;;-15.74;86.38
34674;BME280;20879;55.668;37.858;2023-02-23T04:04:13;99803.91;;;-15.68;86.96
34674;BME280;20879;55.668;37.858;2023-02-23T04:06:58;99820.59;;;-15.76;86.94
34674;BME280;20879;55.668;37.858;2023-02-23T04:09:42;99823.81;;;-15.77;87.27
34674;BME280;20879;55.668;37.858;2023-02-23T04:12:34;99834.41;;;-15.79;87.35
34674;BME280;20879;55.668;37.858;2023-02-23T04:15:24;99830.63;;;-15.85;87.41
34674;BME280;20879;55.668;37.858;2023-02-23T04:17:55;99825.06;;;-15.82;87.34
34674;BME280;20879;55.668;37.858;2023-02-23T04:20:24;99816.00;;;-15.81;87.78
34674;BME280;20879;55.668;37.858;2023-02-23T04:22:53;99786.06;;;-16.11;87.88
34674;BME280;20879;55.668;37.858;2023-02-23T04:25:23;99814.25;;;-15.83;88.19
34674;BME280;20879;55.668;37.858;2023-02-23T04:27:52;99816.88;;;-15.81;88.40
34674;BME280;20879;55.668;37.858;2023-02-23T04:30:22;99822.13;;;-15.78;88.39
34674;BME280;20879;55.668;37.858;2023-02-23T04:32:51;99815.91;;;-15.73;87.74
34674;BME280;20879;55.668;37.858;2023-02-23T04:35:22;99801.47;;;-15.77;87.54
34674;BME280;20879;55.668;37.858;2023-02-23T04:37:54;99823.81;;;-15.77;87.89
34674;BME280;20879;55.668;37.858;2023-02-23T04:40:24;99818.00;;;-15.77;87.95
34674;BME280;20879;55.668;37.858;2023-02-23T04:42:54;99811.63;;;-15.65;88.42
34674;BME280;20879;55.668;37.858;2023-02-23T04:45:24;99838.38;;;-15.71;88.34
34674;BME280;20879;55.668;37.858;2023-02-23T04:47:53;99809.91;;;-15.85;87.95
34674;BME280;20879;55.668;37.858;2023-02-23T04:50:30;99822.63;;;-15.72;88.20
34674;BME280;20879;55.668;37.858;2023-02-23T04:53:00;99851.91;;;-15.59;88.14
34674;BME280;20879;55.668;37.858;2023-02-23T04:55:30;99837.28;;;-15.56;88.07
34674;BME280;20879;55.668;37.858;2023-02-23T04:58:00;99841.03;;;-15.51;87.99
34674;BME280;20879;55.668;37.858;2023-02-23T05:00:35;99837.50;;;-15.44;88.07
34674;BME280;20879;55.668;37.858;2023-02-23T05:03:05;99845.28;;;-15.50;87.52
34674;BME280;20879;55.668;37.858;2023-02-23T05:05:46;99846.84;;;-15.41;87.69
34674;BME280;20879;55.668;37.858;2023-02-23T05:08:16;99822.28;;;-15.38;87.89
34674;BME280;20879;55.668;37.858;2023-02-23T05:10:45;99850.94;;;-15.23;87.63
34674;BME280;20879;55.668;37.858;2023-02-23T05:13:21;99850.88;;;-15.14;87.39
34674;BME280;20879;55.668;37.858;2023-02-23T05:15:55;99839.81;;;-15.18;87.09
34674;BME280;20879;55.668;37.858;2023-02-23T05:18:30;99830.09;;;-15.25;86.52
34674;BME280;20879;55.668;37.858;2023-02-23T05:21:06;99852.78;;;-14.92;86.28
34674;BME280;20879;55.668;37.858;2023-02-23T05:23:36;99864.19;;;-14.95;86.00
34674;BME280;20879;55.668;37.858;2023-02-23T05:26:07;99861.78;;;-14.84;85.93
34674;BME280;20879;55.668;37.858;2023-02-23T05:28:39;99856.44;;;-14.79;85.21
34674;BME280;20879;55.668;37.858;2023-02-23T05:31:10;99818.06;;;-15.01;84.67
34674;BME280;20879;55.668;37.858;2023-02-23T05:33:40;99872.19;;;-14.69;85.09
34674;BME280;20879;55.668;37.858;2023-02-23T05:36:19;99862.97;;;-14.70;84.86
34674;BME280;20879;55.668;37.858;2023-02-23T05:38:49;99871.22;;;-14.61;84.22
34674;BME280;20879;55.668;37.858;2023-02-23T05:41:20;99859.63;;;-14.61;84.10
34674;BME280;20879;55.668;37.858;2023-02-23T05:43:56;99870.22;;;-14.24;84.50
34674;BME280;20879;55.668;37.858;2023-02-23T05:46:25;99863.66;;;-13.83;83.73
34674;BME280;20879;55.668;37.858;2023-02-23T05:48:56;99858.34;;;-14.07;82.58
34674;BME280;20879;55.668;37.858;2023-02-23T05:51:30;99856.56;;;-14.29;82.16
34674;BME280;20879;55.668;37.858;2023-02-23T05:54:00;99861.88;;;-14.34;82.57
34674;BME280;20879;55.668;37.858;2023-02-23T05:56:29;99882.75;;;-14.32;82.72
34674;BME280;20879;55.668;37.858;2023-02-23T05:58:58;99831.53;;;-14.60;82.79
34674;BME280;20879;55.668;37.858;2023-02-23T06:01:28;99848.78;;;-14.32;82.59
34674;BME280;20879;55.668;37.858;2023-02-23T06:04:02;99819.63;;;-14.53;82.14
34674;BME280;20879;55.668;37.858;2023-02-23T06:06:34;99852.09;;;-14.22;82.31
34674;BME280;20879;55.668;37.858;2023-02-23T06:09:03;99876.94;;;-13.93;82.45
34674;BME280;20879;55.668;37.858;2023-02-23T06:11:33;99881.91;;;-13.93;81.54
34674;BME280;20879;55.668;37.858;2023-02-23T06:14:08;99869.50;;;-13.83;81.66
34674;BME280;20879;55.668;37.858;2023-02-23T06:16:37;99887.69;;;-13.74;81.57
34674;BME280;20879;55.668;37.858;2023-02-23T06:19:07;99884.81;;;-13.68;81.40
34674;BME280;20879;55.668;37.858;2023-02-23T06:21:38;99896.78;;;-13.64;81.09
34674;BME280;20879;55.668;37.858;2023-02-23T06:24:08;99890.81;;;-13.56;80.78
34674;BME280;20879;55.668;37.858;2023-02-23T06:26:37;99858.03;;;-13.71;81.06
34674;BME280;20879;55.668;37.858;2023-02-23T06:29:10;99881.59;;;-13.26;80.94
34674;BME280;20879;55.668;37.858;2023-02-23T06:31:40;99877.72;;;-13.02;79.91
34674;BME280;20879;55.668;37.858;2023-02-23T06:34:09;99859.91;;;-13.16;79.11
34674;BME280;20879;55.668;37.858;2023-02-23T06:36:41;99909.13;;;-13.04;78.47
34674;BME280;20879;55.668;37.858;2023-02-23T06:39:11;99883.72;;;-13.10;78.74
34674;BME280;20879;55.668;37.858;2023-02-23T06:41:40;99894.91;;;-13.05;79.34
34674;BME280;20879;55.668;37.858;2023-02-23T06:44:16;99877.81;;;-12.90;79.23
34674;BME280;20879;55.668;37.858;2023-02-23T06:46:45;99863.38;;;-12.84;78.73
34674;BME280;20879;55.668;37.858;2023-02-23T06:49:15;99867.72;;;-12.81;78.16
34674;BME280;20879;55.668;37.858;2023-02-23T06:51:53;99900.66;;;-12.85;78.26
34674;BME280;20879;55.668;37.858;2023-02-23T06:54:22;99906.72;;;-12.71;78.32
34674;BME280;20879;55.668;37.858;2023-02-23T06:56:52;99914.31;;;-12.59;77.96
34674;BME280;20879;55.668;37.858;2023-02-23T06:59:22;99901.34;;;-12.55;77.78
34674;BME280;20879;55.668;37.858;2023-02-23T07:01:51;99908.31;;;-12.51;77.27
34674;BME280;20879;55.668;37.858;2023-02-23T07:04:21;99842.31;;;-12.97;77.52
34674;BME280;20879;55.668;37.858;2023-02-23T07:06:53;99900.59;;;-12.54;77.48
34674;BME280;20879;55.668;37.858;2023-02-23T07:09:22;99917.28;;;-12.53;77.55
34674;BME280;20879;55.668;37.858;2023-02-23T07:11:52;99907.03;;;-12.46;77.27
34674;BME280;20879;55.668;37.858;2023-02-23T07:14:21;99905.56;;;-12.44;77.04
34674;BME280;20879;55.668;37.858;2023-02-23T07:16:55;99892.97;;;-12.45;76.71
34674;BME280;20879;55.668;37.858;2023-02-23T07:19:24;99917.00;;;-12.36;77.21
34674;BME280;20879;55.668;37.858;2023-02-23T07:21:56;99911.63;;;-12.30;77.23
34674;BME280;20879;55.668;37.858;2023-02-23T07:24:30;99905.00;;;-12.19;76.64
34674;BME280;20879;55.668;37.858;2023-02-23T07:26:59;99906.44;;;-12.11;75.85
34674;BME280;20879;55.668;37.858;2023-02-23T07:29:29;99921.53;;;-12.09;76.12
34674;BME280;20879;55.668;37.858;2023-02-23T07:31:59;99897.28;;;-12.22;76.39
34674;BME280;20879;55.668;37.858;2023-02-23T07:34:33;99904.41;;;-11.94;75.99
34674;BME280;20879;55.668;37.858;2023-02-23T07:37:04;99902.91;;;-11.81;75.84
34674;BME280;20879;55.668;37.858;2023-02-23T07:39:34;99906.69;;;-11.86;75.73
34674;BME280;20879;55.668;37.858;2023-02-23T07:42:08;99943.22;;;-11.76;75.66
34674;BME280;20879;55.668;37.858;2023-02-23T07:44:37;99935.91;;;-11.63;76.01
34674;BME280;20879;55.668;37.858;2023-02-23T07:47:07;99897.78;;;-11.60;75.61
34674;BME280;20879;55.668;37.858;2023-02-23T07:49:42;99952.59;;;-11.51;75.86
34674;BME280;20879;55.668;37.858;2023-02-23T07:52:16;99919.00;;;-11.33;75.71
34674;BME280;20879;55.668;37.858;2023-02-23T07:54:51;99911.31;;;-11.24;74.98
34674;BME280;20879;55.668;37.858;2023-02-23T07:57:20;99935.00;;;-11.19;74.88
34674;BME280;20879;55.668;37.858;2023-02-23T07:59:56;99928.41;;;-11.18;74.42
34674;BME280;20879;55.668;37.858;2023-02-23T08:02:26;99953.91;;;-11.22;74.55
34674;BME280;20879;55.668;37.858;2023-02-23T08:05:01;99936.50;;;-11.33;74.24
34674;BME280;20879;55.668;37.858;2023-02-23T08:07:33;99949.44;;;-11.27;75.04
34674;BME280;20879;55.668;37.858;2023-02-23T08:10:02;99938.06;;;-11.11;75.09
34674;BME280;20879;55.668;37.858;2023-02-23T08:12:32;99935.56;;;-11.11;74.60
34674;BME280;20879;55.668;37.858;2023-02-23T08:15:02;99924.03;;;-11.21;74.20
34674;BME280;20879;55.668;37.858;2023-02-23T08:17:31;99923.69;;;-11.26;74.16
34674;BME280;20879;55.668;37.858;2023-02-23T08:20:00;99937.09;;;-11.13;73.94
34674;BME280;20879;55.668;37.858;2023-02-23T08:22:32;99921.75;;;-11.18;73.90
34674;BME280;20879;55.668;37.858;2023-02-23T08:25:08;99943.22;;;-11.10;74.22
34674;BME280;20879;55.668;37.858;2023-02-23T08:27:38;99934.22;;;-10.96;74.07
34674;BME280;20879;55.668;37.858;2023-02-23T08:30:09;99931.94;;;-10.93;73.44
34674;BME280;20879;55.668;37.858;2023-02-23T08:32:40;99873.84;;;-11.12;72.87
34674;BME280;20879;55.668;37.858;2023-02-23T08:35:16;99928.91;;;-10.88;73.22
34674;BME280;20879;55.668;37.858;2023-02-23T08:37:48;99928.06;;;-10.77;73.37
34674;BME280;20879;55.668;37.858;2023-02-23T08:40:17;99919.13;;;-10.74;72.55
34674;BME280;20879;55.668;37.858;2023-02-23T08:42:46;99934.81;;;-10.64;71.93
34674;BME280;20879;55.668;37.858;2023-02-23T08:45:22;99896.72;;;-10.60;72.10
34674;BME280;20879;55.668;37.858;2023-02-23T08:47:55;99874.19;;;-10.84;71.68
34674;BME280;20879;55.668;37.858;2023-02-23T08:50:24;99930.50;;;-10.43;71.60
34674;BME280;20879;55.668;37.858;2023-02-23T08:52:55;99938.97;;;-10.41;71.20
34674;BME280;20879;55.668;37.858;2023-02-23T08:55:25;99932.25;;;-10.42;70.77
34674;BME280;20879;55.668;37.858;2023-02-23T08:58:00;99916.97;;;-10.45;71.22
34674;BME280;20879;55.668;37.858;2023-02-23T09:00:29;99917.00;;;-10.33;70.88
34674;BME280;20879;55.668;37.858;2023-02-23T09:02:59;99933.16;;;-10.28;70.81
34674;BME280;20879;55.668;37.858;2023-02-23T09:05:28;99948.53;;;-10.24;70.11
34674;BME280;20879;55.668;37.858;2023-02-23T09:07:59;99955.91;;;-10.13;70.33
34674;BME280;20879;55.668;37.858;2023-02-23T09:10:29;99955.25;;;-9.99;70.70
34674;BME280;20879;55.668;37.858;2023-02-23T09:13:04;99919.00;;;-9.92;70.73
34674;BME280;20879;55.668;37.858;2023-02-23T09:15:33;99921.06;;;-9.87;69.62
34674;BME280;20879;55.668;37.858;2023-02-23T09:18:10;99929.97;;;-9.90;69.22
34674;BME280;20879;55.668;37.858;2023-02-23T09:20:41;99922.34;;;-9.92;69.51
34674;BME280;20879;55.668;37.858;2023-02-23T09:23:12;99949.59;;;-9.85;69.23
34674;BME280;20879;55.668;37.858;2023-02-23T09:25:42;99942.59;;;-9.77;69.06
34674;BME280;20879;55.668;37.858;2023-02-23T09:28:19;99942.91;;;-9.72;69.09
34674;BME280;20879;55.668;37.858;2023-02-23T09:30:48;99934.69;;;-9.58;69.52
34674;BME280;20879;55.668;37.858;2023-02-23T09:33:17;99944.25;;;-9.40;69.43
34674;BME280;20879;55.668;37.858;2023-02-23T09:35:51;99946.03;;;-9.26;69.07
34674;BME280;20879;55.668;37.858;2023-02-23T09:38:23;99917.03;;;-9.22;68.38
34674;BME280;20879;55.668;37.858;2023-02-23T09:40:53;99895.53;;;-9.19;68.12
34674;BME280;20879;55.668;37.858;2023-02-23T09:43:29;99903.06;;;-9.44;67.82
34674;BME280;20879;55.668;37.858;2023-02-23T09:46:07;99903.00;;;-9.32;67.39
34674;BME280;20879;55.668;37.858;2023-02-23T09:48:41;99927.31;;;-9.31;67.46
34674;BME280;20879;55.668;37.858;2023-02-23T09:51:17;99907.88;;;-9.22;67.52
34674;BME280;20879;55.668;37.858;2023-02-23T09:53:53;99913.00;;;-9.45;66.35
34674;BME280;20879;55.668;37.858;2023-02-23T09:56:30;99925.06;;;-9.40;66.81
34674;BME280;20879;55.668;37.858;2023-02-23T09:59:03;99932.34;;;-9.31;67.57
34674;BME280;20879;55.668;37.858;2023-02-23T10:01:57;99924.50;;;-9.10;67.36
34674;BME280;20879;55.668;37.858;2023-02-23T10:04:30;99918.97;;;-9.18;67.50
34674;BME280;20879;55.668;37.858;2023-02-23T10:07:05;99917.88;;;-8.97;66.75
34674;BME280;20879;55.668;37.858;2023-02-23T10:09:52;99903.13;;;-8.92;66.12
34674;BME280;20879;55.668;37.858;2023-02-23T10:12:31;99927.25;;;-8.94;65.89
34674;BME280;20879;55.668;37.858;2023-02-23T10:15:15;99923.28;;;-8.90;65.65
34674;BME280;20879;55.668;37.858;2023-02-23T10:17:58;99887.69;;;-8.85;64.82
34674;BME280;20879;55.668;37.858;2023-02-23T10:20:36;99904.50;;;-8.70;64.91
34674;BME280;20879;55.668;37.858;2023-02-23T10:23:15;99901.34;;;-8.68;64.51
34674;BME280;20879;55.668;37.858;2023-02-23T10:25:56;99904.59;;;-8.69;64.07
34674;BME280;20879;55.668;37.858;2023-02-23T10:28:32;99889.25;;;-8.60;64.23
34674;BME280;20879;55.668;37.858;2023-02-23T10:31:19;99907.59;;;-8.61;64.01
34674;BME280;20879;55.668;37.858;2023-02-23T10:33:53;99881.16;;;-8.56;63.41
34674;BME280;20879;55.668;37.858;2023-02-23T10:36:34;99881.16;;;-8.56;62.88
34674;BME280;20879;55.668;37.858;2023-02-23T10:39:05;99879.69;;;-8.52;63.53
34674;BME280;20879;55.668;37.858;2023-02-23T10:41:38;99895.38;;;-8.56;63.10
34674;BME280;20879;55.668;37.858;2023-02-23T10:44:16;99907.13;;;-8.55;62.72
34674;BME280;20879;55.668;37.858;2023-02-23T10:46:50;99871.78;;;-8.58;63.86
34674;BME280;20879;55.668;37.858;2023-02-23T10:49:24;99905.66;;;-8.38;63.07
34674;BME280;20879;55.668;37.858;2023-02-23T10:51:56;99826.88;;;-8.67;62.72
34674;BME280;20879;55.668;37.858;2023-02-23T10:54:40;99899.47;;;-8.30;62.80
34674;BME280;20879;55.668;37.858;2023-02-23T10:57:22;99894.84;;;-8.24;62.24
34674;BME280;20879;55.668;37.858;2023-02-23T11:00:23;99831.84;;;-8.40;61.93
34674;BME280;20879;55.668;37.858;2023-02-23T11:03:00;99891.63;;;-8.21;61.38
34674;BME280;20879;55.668;37.858;2023-02-23T11:05:33;99897.94;;;-8.15;61.51
34674;BME280;20879;55.668;37.858;2023-02-23T11:08:10;99895.50;;;-8.13;60.98
34674;BME280;20879;55.668;37.858;2023-02-23T11:10:41;99873.94;;;-8.10;59.95
34674;BME280;20879;55.668;37.858;2023-02-23T11:13:23;99858.69;;;-7.99;59.73
34674;BME280;20879;55.668;37.858;2023-02-23T11:15:59;99903.31;;;-7.95;60.02
34674;BME280;20879;55.668;37.858;2023-02-23T11:18:35;99842.38;;;-8.19;57.81
34674;BME280;20879;55.668;37.858;2023-02-23T11:21:12;99907.47;;;-7.96;56.42
34674;BME280;20879;55.668;37.858;2023-02-23T11:23:49;99844.00;;;-8.06;56.46
34674;BME280;20879;55.668;37.858;2023-02-23T11:26:24;99885.06;;;-8.06;57.51
34674;BME280;20879;55.668;37.858;2023-02-23T11:29:00;99855.22;;;-8.15;57.97
34674;BME280;20879;55.668;37.858;2023-02-23T11:31:33;99893.84;;;-7.86;58.68
34674;BME280;20879;55.668;37.858;2023-02-23T11:34:19;99861.50;;;-7.80;58.38
34674;BME280;20879;55.668;37.858;2023-02-23T11:36:58;99861.78;;;-7.75;57.92
34674;BME280;20879;55.668;37.858;2023-02-23T11:39:28;99885.09;;;-7.78;57.64
34674;BME280;20879;55.668;37.858;2023-02-23T11:42:15;99883.84;;;-7.71;58.83
34674;BME280;20879;55.668;37.858;2023-02-23T11:45:00;99876.56;;;-7.66;58.54
34674;BME280;20879;55.668;37.858;2023-02-23T11:47:31;99881.09;;;-7.61;59.16
34674;BME280;20879;55.668;37.858;2023-02-23T11:50:08;99866.19;;;-7.86;59.37
34674;BME280;20879;55.668;37.858;2023-02-23T11:52:48;99884.78;;;-7.69;60.22
34674;BME280;20879;55.668;37.858;2023-02-23T11:55:33;99890.69;;;-7.68;60.36
34674;BME280;20879;55.668;37.858;2023-02-23T11:58:18;99865.38;;;-7.71;60.68
34674;BME280;20879;55.668;37.858;2023-02-23T12:00:56;99888.78;;;-7.73;60.42
34674;BME280;20879;55.668;37.858;2023-02-23T12:03:29;99866.38;;;-7.83;60.55
34674;BME280;20879;55.668;37.858;2023-02-23T12:06:09;99858.16;;;-7.80;60.44
34674;BME280;20879;55.668;37.858;2023-02-23T12:08:42;99880.88;;;-7.92;60.35
34674;BME280;20879;55.668;37.858;2023-02-23T12:11:17;99851.28;;;-7.83;60.64
34674;BME280;20879;55.668;37.858;2023-02-23T12:13:51;99879.69;;;-7.84;60.44
34674;BME280;20879;55.668;37.858;2023-02-23T12:16:26;99885.50;;;-7.85;60.67
34674;BME280;20879;55.668;37.858;2023-02-23T12:19:01;99886.19;;;-7.87;61.28
34674;BME280;20879;55.668;37.858;2023-02-23T12:21:38;99868.50;;;-7.89;60.92
34674;BME280;20879;55.668;37.858;2023-02-23T12:24:15;99884.63;;;-7.85;61.08
34674;BME280;20879;55.668;37.858;2023-02-23T12:26:49;99873.31;;;-7.92;61.15
34674;BME280;20879;55.668;37.858;2023-02-23T12:29:24;99865.91;;;-7.91;61.02
34674;BME280;20879;55.668;37.858;2023-02-23T12:32:01;99873.53;;;-7.89;61.22
34674;BME280;20879;55.668;37.858;2023-02-23T12:34:43;99871.88;;;-7.88;61.13
34674;BME280;20879;55.668;37.858;2023-02-23T12:37:25;99889.97;;;-7.94;61.47
34674;BME280;20879;55.668;37.858;2023-02-23T12:39:57;99879.25;;;-7.92;61.01
34674;BME280;20879;55.668;37.858;2023-02-23T12:42:43;99833.63;;;-8.11;61.13
34674;BME280;20879;55.668;37.858;2023-02-23T12:45:27;99868.41;;;-8.04;61.14
34674;BME280;20879;55.668;37.858;2023-02-23T12:53:19;99873.59;;;-8.29;60.63
34674;BME280;20879;55.668;37.858;2023-02-23T12:56:08;99867.22;;;-8.24;61.42
34674;BME280;20879;55.668;37.858;2023-02-23T12:58:43;99858.22;;;-8.34;61.65
34674;BME280;20879;55.668;37.858;2023-02-23T13:01:23;99862.41;;;-8.34;61.65
34674;BME280;20879;55.668;37.858;2023-02-23T13:04:07;99895.53;;;-8.27;61.64
34674;BME280;20879;55.668;37.858;2023-02-23T13:06:48;99873.38;;;-8.19;61.58
34674;BME280;20879;55.668;37.858;2023-02-23T13:09:39;99894.47;;;-8.17;61.87
34674;BME280;20879;55.668;37.858;2023-02-23T13:12:24;99888.25;;;-8.22;62.29
34674;BME280;20879;55.668;37.858;2023-02-23T13:15:07;99886.63;;;-8.21;61.93
34674;BME280;20879;55.668;37.858;2023-02-23T13:17:51;99881.91;;;-8.17;61.67
34674;BME280;20879;55.668;37.858;2023-02-23T13:20:31;99889.53;;;-8.15;61.60
34674;BME280;20879;55.668;37.858;2023-02-23T13:23:19;99895.63;;;-8.25;61.99
34674;BME280;20879;55.668;37.858;2023-02-23T13:25:58;99882.47;;;-8.21;62.17
34674;BME280;20879;55.668;37.858;2023-02-23T13:28:39;99869.91;;;-8.21;61.90
34674;BME280;20879;55.668;37.858;2023-02-23T13:31:18;99881.69;;;-8.20;61.70
34674;BME280;20879;55.668;37.858;2023-02-23T13:33:54;99875.97;;;-8.17;61.70
34674;BME280;20879;55.668;37.858;2023-02-23T13:36:31;99866.22;;;-8.26;61.55
34674;BME280;20879;55.668;37.858;2023-02-23T13:42:20;99884.28;;;-8.32;62.04
34674;BME280;20879;55.668;37.858;2023-02-23T13:45:03;99888.56;;;-8.31;62.12